Time;durP1;ratioP1;P1;durP2;ratioP2;P2;SDS_P1;SDS_P2;PMS_P1;PMS_P2;Temp;Humidity;BMP_temperature;BMP_pressure;BME280_temperature;BME280_humidity;BME280_pressure;Samples;Min_cycle;Max_cycle;Signal;HPM_P1;HPM_P2
2021/12/31 00:00:53;;;;;;;21.80;14.80;;;;;;;6.31;91.54;100009.40;87498;1286;97678;-68
2021/12/31 00:03:00;;;;;;;20.40;15.00;;;;;;;6.32;91.54;100014.42;87508;1287;89552;-67
2021/12/31 00:05:09;;;;;;;21.70;14.30;;;;;;;6.37;91.62;100002.52;87525;1287;93346;-67
2021/12/31 00:07:17;;;;;;;19.40;14.30;;;;;;;6.43;91.67;99998.81;87522;1286;80028;-67
2021/12/31 00:09:23;;;;;;;23.20;15.30;;;;;;;6.44;91.62;99999.77;87560;1287;81761;-67
2021/12/31 00:11:31;;;;;;;22.20;14.40;;;;;;;6.44;91.71;99997.09;87524;1287;98263;-69
2021/12/31 00:13:40;;;;;;;22.70;14.70;;;;;;;6.45;91.86;99998.77;87550;1287;87136;-66
2021/12/31 00:15:47;;;;;;;21.60;15.30;;;;;;;6.45;91.61;100000.27;87549;1287;92553;-67
2021/12/31 00:17:53;;;;;;;21.30;14.70;;;;;;;6.43;91.68;100007.79;87437;1287;81238;-67
2021/12/31 00:20:01;;;;;;;21.20;13.80;;;;;;;6.37;91.62;100008.61;87548;1286;83495;-62
2021/12/31 00:22:30;;;;;;;19.10;14.00;;;;;;;6.39;91.65;100013.60;87511;1287;99233;-63
2021/12/31 00:24:37;;;;;;;20.50;14.10;;;;;;;6.40;91.61;100016.02;87524;1286;87387;-68
2021/12/31 00:26:45;;;;;;;22.20;15.00;;;;;;;6.42;91.64;100025.64;87524;1286;95549;-67
2021/12/31 00:28:52;;;;;;;19.10;13.10;;;;;;;6.42;91.53;100033.11;87483;1286;81800;-63
2021/12/31 00:30:59;;;;;;;21.50;15.50;;;;;;;6.45;91.53;100028.37;87552;1286;82132;-63
2021/12/31 00:33:10;;;;;;;22.50;15.50;;;;;;;6.46;91.54;100030.83;87556;1286;97453;-62
2021/12/31 00:35:17;;;;;;;23.50;16.10;;;;;;;6.45;91.53;100030.96;87558;1286;87374;-62
2021/12/31 00:37:32;;;;;;;22.90;16.60;;;;;;;6.46;91.59;100022.96;87308;1287;95277;-62
2021/12/31 00:39:38;;;;;;;21.50;15.70;;;;;;;6.46;91.62;100017.77;87531;1286;80633;-66
2021/12/31 00:41:47;;;;;;;23.10;16.30;;;;;;;6.45;91.62;100020.64;87439;1286;82877;-65
2021/12/31 00:43:54;;;;;;;23.50;16.60;;;;;;;6.46;91.63;100022.66;87406;1286;98041;-65
2021/12/31 00:46:03;;;;;;;22.20;15.50;;;;;;;6.46;91.73;100026.02;87541;1286;89542;-67
2021/12/31 00:48:11;;;;;;;26.40;17.40;;;;;;;6.50;91.75;100024.38;87563;1286;93031;-61
2021/12/31 00:50:17;;;;;;;23.40;16.20;;;;;;;6.53;91.76;100025.10;87525;1286;81003;-62
2021/12/31 00:52:28;;;;;;;25.60;17.60;;;;;;;6.57;91.83;100024.44;87593;1286;84260;-64
2021/12/31 00:54:38;;;;;;;25.20;16.00;;;;;;;6.62;91.86;100032.14;87554;1286;99129;-67
2021/12/31 00:56:47;;;;;;;24.20;15.90;;;;;;;6.63;91.82;100034.73;87546;1286;89232;-66
2021/12/31 00:58:53;;;;;;;25.60;16.30;;;;;;;6.62;91.94;100038.95;87545;1286;95176;-63
2021/12/31 01:00:59;;;;;;;23.10;16.80;;;;;;;6.63;91.81;100036.33;87525;1286;79990;-61
2021/12/31 01:03:04;;;;;;;23.90;17.10;;;;;;;6.64;91.73;100034.42;87560;1286;81464;-62
2021/12/31 01:05:13;;;;;;;26.20;18.70;;;;;;;6.66;91.88;100041.05;87539;1286;99785;-61
2021/12/31 01:07:21;;;;;;;27.00;18.50;;;;;;;6.68;91.83;100042.39;87531;1286;89288;-61
2021/12/31 01:09:31;;;;;;;25.60;17.50;;;;;;;6.67;91.75;100039.11;87530;1286;96181;-68
2021/12/31 01:11:42;;;;;;;25.50;17.20;;;;;;;6.61;91.82;100034.09;87523;1286;79827;-67
2021/12/31 01:13:53;;;;;;;24.80;17.80;;;;;;;6.60;91.60;100029.16;87535;1286;82821;-69
2021/12/31 01:16:02;;;;;;;25.30;17.00;;;;;;;6.57;91.67;100037.33;87497;1286;98554;-67
2021/12/31 01:18:22;;;;;;;23.70;16.90;;;;;;;6.56;91.60;100033.70;87521;1286;88831;-66
2021/12/31 01:20:31;;;;;;;26.00;16.70;;;;;;;6.60;91.76;100025.70;87528;1287;95291;-67
2021/12/31 01:22:38;;;;;;;24.80;17.70;;;;;;;6.63;91.67;100023.45;87548;1286;80945;-67
2021/12/31 01:24:47;;;;;;;24.40;17.00;;;;;;;6.64;91.80;100029.11;87564;1286;80659;-68
2021/12/31 01:26:56;;;;;;;24.40;16.40;;;;;;;6.68;91.71;100029.84;87521;1286;99616;-67
2021/12/31 01:29:04;;;;;;;27.10;18.50;;;;;;;6.72;91.73;100028.33;87502;1286;86964;-62
2021/12/31 01:31:13;;;;;;;26.40;17.60;;;;;;;6.78;91.75;100029.06;87485;1286;95081;-62
2021/12/31 01:33:19;;;;;;;26.00;18.00;;;;;;;6.79;91.78;100024.22;87499;1286;80768;-61
2021/12/31 01:35:27;;;;;;;26.20;17.40;;;;;;;6.77;91.72;100027.58;87556;1286;81393;-62
2021/12/31 01:37:36;;;;;;;26.10;17.20;;;;;;;6.70;91.49;100028.36;87506;1286;98064;-62
2021/12/31 01:39:42;;;;;;;23.90;17.10;;;;;;;6.66;91.46;100025.79;87481;1285;88287;-67
2021/12/31 01:41:48;;;;;;;24.90;16.80;;;;;;;6.63;91.48;100029.89;87566;1286;94033;-67
2021/12/31 01:43:54;;;;;;;24.70;17.20;;;;;;;6.65;91.41;100028.74;87495;1286;81245;-63
2021/12/31 01:46:10;;;;;;;25.20;16.50;;;;;;;6.68;91.60;100026.05;87549;1286;82476;-62
2021/12/31 01:48:25;;;;;;;22.60;16.60;;;;;;;6.72;91.58;100020.77;87574;1286;98388;-68
2021/12/31 01:50:31;;;;;;;24.70;17.20;;;;;;;6.74;91.66;100011.94;87556;1286;87510;-68
2021/12/31 01:52:40;;;;;;;23.70;17.10;;;;;;;6.78;91.58;100020.50;87533;1285;96138;-67
2021/12/31 01:54:46;;;;;;;23.90;16.60;;;;;;;6.80;91.63;100026.84;87532;1286;78748;-63
2021/12/31 01:56:53;;;;;;;24.80;18.30;;;;;;;6.78;91.59;100029.90;87532;1286;80540;-63
2021/12/31 01:59:00;;;;;;;23.50;16.30;;;;;;;6.75;91.46;100038.30;87534;1286;96882;-61
2021/12/31 02:01:06;;;;;;;24.80;17.30;;;;;;;6.71;91.48;100038.29;87557;1286;89327;-63
2021/12/31 02:03:13;;;;;;;22.50;15.30;;;;;;;6.69;91.45;100032.75;87551;1286;92731;-68
2021/12/31 02:05:22;;;;;;;22.80;16.20;;;;;;;6.67;91.38;100036.27;87527;1286;81776;-68
2021/12/31 02:07:28;;;;;;;22.10;15.00;;;;;;;6.65;91.37;100036.66;87560;1286;82942;-67
2021/12/31 02:09:37;;;;;;;21.70;16.20;;;;;;;6.67;91.26;100040.02;87550;1286;98164;-68
2021/12/31 02:11:43;;;;;;;20.70;15.30;;;;;;;6.69;91.47;100033.70;87531;1286;87938;-67
2021/12/31 02:13:52;;;;;;;18.10;13.50;;;;;;;6.71;91.41;100030.39;87536;1286;95789;-62
2021/12/31 02:16:01;;;;;;;20.30;13.90;;;;;;;6.72;91.44;100027.11;87556;1286;80095;-61
2021/12/31 02:18:10;;;;;;;17.70;13.80;;;;;;;6.71;91.41;100020.36;87577;1285;82554;-67
2021/12/31 02:20:20;;;;;;;18.70;13.50;;;;;;;6.71;91.44;100017.36;87554;1286;97099;-67
2021/12/31 02:22:29;;;;;;;18.80;13.30;;;;;;;6.72;91.49;100019.20;87565;1286;89048;-68
2021/12/31 02:24:39;;;;;;;17.10;12.50;;;;;;;6.73;91.48;100024.92;87520;1286;95033;-63
2021/12/31 02:26:48;;;;;;;18.60;12.70;;;;;;;6.74;91.48;100029.84;87539;1286;81798;-62
2021/12/31 02:28:53;;;;;;;18.50;12.90;;;;;;;6.73;91.58;100032.43;87547;1286;82363;-68
2021/12/31 02:31:03;;;;;;;17.70;12.50;;;;;;;6.75;91.60;100024.02;87552;1285;99520;-68
2021/12/31 02:33:09;;;;;;;19.00;12.80;;;;;;;6.81;91.57;100026.23;87570;1286;89947;-67
2021/12/31 02:35:16;;;;;;;16.50;11.90;;;;;;;6.83;91.63;100030.08;87540;1286;95507;-68
2021/12/31 02:37:22;;;;;;;19.30;12.50;;;;;;;6.85;91.68;100025.34;87535;1286;78481;-66
2021/12/31 02:39:28;;;;;;;17.30;12.60;;;;;;;6.84;91.56;100019.28;87566;1286;83565;-66
2021/12/31 02:41:35;;;;;;;16.80;11.30;;;;;;;6.79;91.48;100020.88;87543;1286;98644;-66
2021/12/31 02:43:40;;;;;;;16.00;11.40;;;;;;;6.76;91.48;100024.96;87567;1286;89044;-66
2021/12/31 02:45:47;;;;;;;15.30;11.30;;;;;;;6.78;91.60;100029.19;87509;1286;95389;-68
2021/12/31 02:47:53;;;;;;;14.70;10.80;;;;;;;6.79;91.57;100035.77;87554;1286;79622;-68
2021/12/31 02:50:03;;;;;;;16.80;10.80;;;;;;;6.83;91.70;100036.73;87556;1286;80913;-66
2021/12/31 02:52:16;;;;;;;14.70;11.20;;;;;;;6.84;91.88;100032.77;87571;1286;97570;-67
2021/12/31 02:54:22;;;;;;;16.30;10.50;;;;;;;6.90;91.91;100039.15;87539;1286;89285;-66
2021/12/31 02:56:29;;;;;;;14.30;10.40;;;;;;;6.95;91.87;100035.50;87548;1286;96016;-67
2021/12/31 02:58:36;;;;;;;15.80;10.40;;;;;;;7.00;91.94;100030.48;87555;1286;80171;-67
2021/12/31 03:00:43;;;;;;;14.30;10.20;;;;;;;7.02;92.05;100031.06;87591;1286;80679;-67
2021/12/31 03:02:51;;;;;;;16.00;10.90;;;;;;;7.09;92.06;100024.38;87572;1286;98481;-69
2021/12/31 03:04:58;;;;;;;14.70;9.80;;;;;;;7.13;92.03;100016.41;87559;1285;87180;-67
2021/12/31 03:07:06;;;;;;;14.30;10.60;;;;;;;7.15;92.03;100019.42;87545;1286;95138;-67
2021/12/31 03:09:15;;;;;;;13.30;9.90;;;;;;;7.17;91.99;100024.34;87569;1286;81017;-64
2021/12/31 03:11:22;;;;;;;16.80;9.70;;;;;;;7.18;92.03;100028.58;87550;1285;80006;-63
2021/12/31 03:13:29;;;;;;;14.20;9.80;;;;;;;7.24;92.00;100029.14;87566;1286;99188;-68
2021/12/31 03:15:36;;;;;;;16.70;10.90;;;;;;;7.27;91.94;100025.90;87554;1286;87542;-68
2021/12/31 03:17:44;;;;;;;15.20;10.30;;;;;;;7.25;91.89;100032.52;87580;1286;93790;-68
2021/12/31 03:19:57;;;;;;;13.80;10.30;;;;;;;7.24;91.94;100030.74;87547;1286;80954;-69
2021/12/31 03:22:04;;;;;;;14.80;9.60;;;;;;;7.23;91.81;100024.20;87550;1286;82230;-69
2021/12/31 03:24:13;;;;;;;13.10;9.70;;;;;;;7.21;91.92;100021.98;87556;1285;97295;-67
2021/12/31 03:26:23;;;;;;;13.40;9.30;;;;;;;7.19;91.90;100024.27;87549;1286;87231;-67
2021/12/31 03:28:29;;;;;;;13.40;9.60;;;;;;;7.19;92.14;100030.00;87557;1286;95859;-67
2021/12/31 03:30:35;;;;;;;13.80;9.70;;;;;;;7.21;92.15;100024.45;87537;1286;81358;-67
2021/12/31 03:32:44;;;;;;;13.00;9.80;;;;;;;7.23;92.10;100033.30;87544;1286;79800;-67
2021/12/31 03:34:50;;;;;;;11.70;8.90;;;;;;;7.26;92.19;100040.61;87595;1286;98256;-68
2021/12/31 03:36:57;;;;;;;14.10;10.20;;;;;;;7.30;92.16;100041.80;87575;1286;89125;-67
2021/12/31 03:39:03;;;;;;;14.80;10.20;;;;;;;7.31;92.18;100044.54;87577;1286;95682;-65
2021/12/31 03:41:12;;;;;;;14.90;10.50;;;;;;;7.34;92.31;100040.59;87577;1286;79184;-63
2021/12/31 03:43:18;;;;;;;13.60;9.50;;;;;;;7.36;92.22;100038.52;87545;1286;81555;-68
2021/12/31 03:45:25;;;;;;;13.90;10.20;;;;;;;7.39;92.19;100031.30;87546;1286;99002;-69
2021/12/31 03:47:31;;;;;;;13.40;9.80;;;;;;;7.40;92.25;100035.25;87580;1286;88785;-67
2021/12/31 03:49:37;;;;;;;13.00;10.00;;;;;;;7.42;92.16;100029.21;87564;1286;94894;-62
2021/12/31 03:51:43;;;;;;;15.00;10.20;;;;;;;7.46;92.34;100024.62;87593;1286;81995;-62
2021/12/31 03:53:52;;;;;;;13.60;10.50;;;;;;;7.47;92.34;100030.87;87545;1285;79897;-62
2021/12/31 03:55:58;;;;;;;13.50;10.00;;;;;;;7.48;92.47;100024.62;87424;1285;99271;-65
2021/12/31 03:58:07;;;;;;;13.00;9.80;;;;;;;7.53;92.36;100028.87;87588;1286;89210;-64
2021/12/31 04:00:16;;;;;;;13.10;10.20;;;;;;;7.58;92.41;100029.92;87553;1286;94347;-63
2021/12/31 04:02:25;;;;;;;13.90;10.40;;;;;;;7.61;92.43;100036.10;87280;1286;386931;-62
2021/12/31 04:04:31;;;;;;;13.10;9.70;;;;;;;7.60;92.40;100036.21;87559;1286;83458;-64
2021/12/31 04:06:41;;;;;;;13.20;9.80;;;;;;;7.68;92.52;100031.02;87577;1286;99156;-63
2021/12/31 04:08:47;;;;;;;14.40;9.70;;;;;;;7.74;92.50;100037.32;87553;1286;89189;-62
2021/12/31 04:10:58;;;;;;;13.10;10.90;;;;;;;7.77;92.60;100042.04;87549;1286;94736;-61
2021/12/31 04:13:04;;;;;;;15.10;11.10;;;;;;;7.79;92.60;100030.95;87537;1286;78857;-62
2021/12/31 04:15:14;;;;;;;14.80;11.00;;;;;;;7.82;92.49;100027.79;87574;1286;80920;-62
2021/12/31 04:17:23;;;;;;;13.60;10.70;;;;;;;7.81;92.40;100024.73;87561;1286;97363;-62
2021/12/31 04:19:32;;;;;;;14.50;10.20;;;;;;;7.79;92.31;100027.23;87578;1286;88086;-63
2021/12/31 04:21:38;;;;;;;12.70;10.50;;;;;;;7.71;92.36;100035.52;87550;1286;94938;-63
2021/12/31 04:23:52;;;;;;;14.80;10.40;;;;;;;7.68;92.43;100046.98;87572;1286;82336;-67
2021/12/31 04:25:59;;;;;;;14.90;10.10;;;;;;;7.68;92.49;100046.65;87591;1286;83047;-66
2021/12/31 04:28:09;;;;;;;11.30;9.70;;;;;;;7.72;92.42;100042.42;87563;1285;98315;-66
2021/12/31 04:30:19;;;;;;;13.60;10.00;;;;;;;7.75;92.56;100040.40;87283;1287;89535;-67
2021/12/31 04:32:27;;;;;;;12.90;9.60;;;;;;;7.77;92.57;100037.59;87557;1286;95033;-68
2021/12/31 04:34:35;;;;;;;11.80;9.00;;;;;;;7.81;92.54;100034.04;87544;1286;83113;-66
2021/12/31 04:36:41;;;;;;;11.50;8.80;;;;;;;7.82;92.61;100028.48;87533;1286;81957;-66
2021/12/31 04:38:47;;;;;;;10.80;8.40;;;;;;;7.85;92.62;100028.90;87542;1286;96986;-61
2021/12/31 04:40:52;;;;;;;12.20;9.40;;;;;;;7.88;92.65;100035.38;87570;1286;88238;-64
2021/12/31 04:42:58;;;;;;;11.20;8.90;;;;;;;7.93;92.71;100044.10;87559;1286;95629;-64
2021/12/31 04:45:11;;;;;;;10.30;8.20;;;;;;;7.93;92.65;100049.58;87580;1286;79337;-63
2021/12/31 04:47:21;;;;;;;11.50;8.50;;;;;;;7.95;92.62;100047.50;87582;1286;80307;-64
2021/12/31 04:49:26;;;;;;;9.20;7.40;;;;;;;7.98;92.75;100048.45;87387;1284;98708;-67
2021/12/31 04:51:33;;;;;;;10.60;8.50;;;;;;;8.01;92.67;100045.61;87581;1286;88031;-68
2021/12/31 04:53:39;;;;;;;10.80;7.90;;;;;;;8.02;92.64;100048.49;87552;1285;95144;-67
2021/12/31 04:55:50;;;;;;;12.50;8.90;;;;;;;8.03;92.60;100051.11;87548;1286;78070;-66
2021/12/31 04:57:59;;;;;;;10.20;7.90;;;;;;;8.02;92.67;100049.02;87595;1286;79636;-67
2021/12/31 05:00:07;;;;;;;12.20;9.00;;;;;;;8.03;92.60;100051.07;87402;1285;97415;-66
2021/12/31 05:02:16;;;;;;;10.70;7.90;;;;;;;8.03;92.69;100040.21;87573;1286;87037;-66
2021/12/31 05:04:21;;;;;;;12.20;9.00;;;;;;;8.04;92.71;100037.00;87532;1286;93546;-62
2021/12/31 05:06:28;;;;;;;10.70;7.90;;;;;;;8.06;92.83;100037.12;87542;1285;79527;-64
2021/12/31 05:08:34;;;;;;;12.00;8.50;;;;;;;8.04;92.77;100041.27;87601;1286;80267;-67
2021/12/31 05:10:42;;;;;;;10.20;7.80;;;;;;;8.02;92.83;100038.14;87589;1286;97474;-67
2021/12/31 05:12:55;;;;;;;11.10;8.80;;;;;;;8.06;92.85;100034.89;87577;1286;88871;-67
2021/12/31 05:15:02;;;;;;;11.90;8.70;;;;;;;8.11;92.84;100037.34;87556;1286;94509;-67
2021/12/31 05:17:11;;;;;;;9.90;7.60;;;;;;;8.14;92.84;100037.85;87593;1286;81073;-66
2021/12/31 05:19:17;;;;;;;11.20;8.20;;;;;;;8.18;92.92;100032.20;87589;1286;80487;-62
2021/12/31 05:21:23;;;;;;;9.70;8.10;;;;;;;8.22;92.75;100029.73;87569;1286;98717;-63
2021/12/31 05:23:29;;;;;;;11.10;8.20;;;;;;;8.24;92.73;100032.20;87578;1286;89726;-67
2021/12/31 05:25:35;;;;;;;9.90;8.20;;;;;;;8.25;92.68;100030.48;87558;1286;95866;-67
2021/12/31 05:27:44;;;;;;;11.40;8.60;;;;;;;8.27;92.61;100025.58;87575;1286;82547;-67
2021/12/31 05:29:51;;;;;;;10.50;8.20;;;;;;;8.26;92.49;100027.86;87596;1286;81804;-63
2021/12/31 05:31:59;;;;;;;11.50;8.80;;;;;;;8.24;92.57;100031.42;87594;1286;96206;-62
2021/12/31 05:34:05;;;;;;;9.10;8.10;;;;;;;8.27;92.50;100038.35;87634;1286;88327;-67
2021/12/31 05:36:14;;;;;;;11.30;8.60;;;;;;;8.25;92.45;100040.88;87546;1286;94822;-66
2021/12/31 05:38:20;;;;;;;9.00;7.30;;;;;;;8.26;92.48;100042.59;87591;1285;77266;-62
2021/12/31 05:40:26;;;;;;;10.20;8.50;;;;;;;8.28;92.49;100037.15;87608;1285;81519;-62
2021/12/31 05:42:32;;;;;;;11.50;8.40;;;;;;;8.27;92.41;100031.86;87581;1286;99009;-62
2021/12/31 05:44:38;;;;;;;13.40;8.60;;;;;;;8.24;92.32;100031.10;87585;1286;87805;-63
2021/12/31 05:46:48;;;;;;;10.80;8.70;;;;;;;8.21;92.19;100032.06;87583;1286;94641;-62
2021/12/31 05:48:54;;;;;;;10.60;8.10;;;;;;;8.16;92.20;100031.01;87599;1285;81565;-62
2021/12/31 05:51:00;;;;;;;10.50;8.20;;;;;;;8.14;92.19;100028.60;87584;1286;81689;-62
2021/12/31 05:53:09;;;;;;;10.80;8.20;;;;;;;8.13;92.17;100032.85;87564;1286;99337;-63
2021/12/31 05:55:15;;;;;;;12.50;9.40;;;;;;;8.11;92.18;100033.44;87594;1286;89092;-62
2021/12/31 05:57:24;;;;;;;11.00;8.20;;;;;;;8.07;92.20;100037.48;87582;1286;95294;-63
2021/12/31 05:59:30;;;;;;;11.60;8.70;;;;;;;8.06;92.33;100041.39;87589;1286;80639;-62
2021/12/31 06:01:38;;;;;;;11.20;9.00;;;;;;;8.07;92.32;100040.02;87588;1286;82522;-64
2021/12/31 06:03:44;;;;;;;12.50;9.20;;;;;;;8.09;92.38;100038.10;87595;1286;96675;-64
2021/12/31 06:05:52;;;;;;;11.70;9.10;;;;;;;8.14;92.36;100034.66;87593;1286;89262;-61
2021/12/31 06:07:59;;;;;;;11.40;8.40;;;;;;;8.17;92.35;100035.41;87595;1285;94956;-67
2021/12/31 06:10:06;;;;;;;10.80;7.90;;;;;;;8.14;92.24;100033.58;87573;1286;81854;-70
2021/12/31 06:12:12;;;;;;;10.60;8.10;;;;;;;8.12;92.19;100031.27;87613;1286;82984;-69
2021/12/31 06:14:18;;;;;;;11.50;9.30;;;;;;;8.12;92.15;100033.50;87607;1286;99107;-64
2021/12/31 06:16:24;;;;;;;10.40;9.10;;;;;;;8.11;92.15;100033.81;87398;1286;89562;-64
2021/12/31 06:18:29;;;;;;;12.50;9.70;;;;;;;8.10;92.19;100028.38;87562;1285;95488;-64
2021/12/31 06:20:40;;;;;;;11.30;8.80;;;;;;;8.13;92.32;100032.45;87584;1285;81629;-64
2021/12/31 06:22:50;;;;;;;10.40;8.30;;;;;;;8.14;92.33;100027.29;87337;1287;81291;-64
2021/12/31 06:24:56;;;;;;;105.80;70.20;;;;;;;8.10;92.23;100029.41;87592;1286;97452;-64
2021/12/31 06:27:01;;;;;;;54.60;40.30;;;;;;;8.14;92.46;100029.15;87321;1286;86774;-64
2021/12/31 06:29:10;;;;;;;13.40;11.20;;;;;;;8.16;92.50;100034.81;87598;1286;95252;-73
2021/12/31 06:31:16;;;;;;;11.70;8.90;;;;;;;8.19;92.59;100038.88;87565;1286;81947;-70
2021/12/31 06:33:25;;;;;;;9.30;7.70;;;;;;;8.24;92.54;100036.14;87609;1286;81167;-64
2021/12/31 06:35:31;;;;;;;10.30;8.00;;;;;;;8.29;92.60;100037.52;87612;1286;97718;-63
2021/12/31 06:37:37;;;;;;;10.10;8.10;;;;;;;8.35;92.61;100036.84;87620;1285;88139;-63
2021/12/31 06:39:47;;;;;;;10.30;8.20;;;;;;;8.40;92.65;100035.88;87602;1286;96911;-70
2021/12/31 06:41:53;;;;;;;10.50;9.20;;;;;;;8.42;92.60;100030.60;87603;1286;77885;-69
2021/12/31 06:43:58;;;;;;;10.10;8.60;;;;;;;8.42;92.63;100034.70;87635;1286;81571;-71
2021/12/31 06:46:07;;;;;;;10.30;8.20;;;;;;;8.42;92.61;100036.36;87604;1286;97871;-70
2021/12/31 06:48:13;;;;;;;9.70;7.90;;;;;;;8.42;92.63;100034.58;87578;1286;89244;-63
2021/12/31 06:50:18;;;;;;;10.30;7.50;;;;;;;8.42;92.70;100037.23;87574;1286;95004;-63
2021/12/31 06:52:24;;;;;;;10.10;8.00;;;;;;;8.44;92.80;100038.10;87596;1286;80619;-63
2021/12/31 06:54:30;;;;;;;9.60;7.10;;;;;;;8.49;92.84;100037.30;87570;1286;83231;-71
2021/12/31 06:56:35;;;;;;;9.10;7.40;;;;;;;8.54;92.90;100038.79;87561;1286;98596;-69
2021/12/31 06:58:41;;;;;;;9.20;7.00;;;;;;;8.61;93.07;100040.12;87590;1286;88914;-63
2021/12/31 07:00:46;;;;;;;9.00;7.00;;;;;;;8.67;93.05;100038.17;87577;1286;94501;-62
2021/12/31 07:03:03;;;;;;;9.60;7.90;;;;;;;8.69;93.19;100039.45;87617;1286;79012;-61
2021/12/31 07:05:10;;;;;;;10.20;7.90;;;;;;;8.69;93.17;100041.10;87615;1286;80221;-63
2021/12/31 07:07:19;;;;;;;8.50;7.20;;;;;;;8.69;93.06;100044.88;87599;1286;99149;-61
2021/12/31 07:09:25;;;;;;;9.10;7.50;;;;;;;8.69;93.08;100043.05;87610;1286;86947;-62
2021/12/31 07:11:30;;;;;;;8.40;6.60;;;;;;;8.72;93.15;100045.42;87576;1286;95788;-62
2021/12/31 07:13:39;;;;;;;7.30;5.80;;;;;;;8.76;93.10;100045.10;87597;1286;80067;-72
2021/12/31 07:15:48;;;;;;;7.90;6.70;;;;;;;8.80;93.05;100050.16;87610;1286;80455;-71
2021/12/31 07:17:54;;;;;;;6.60;5.80;;;;;;;8.84;93.13;100049.64;87612;1285;99936;-69
2021/12/31 07:20:03;;;;;;;6.90;5.70;;;;;;;8.86;93.11;100053.16;87585;1286;88490;-69
2021/12/31 07:22:12;;;;;;;8.30;5.80;;;;;;;8.89;93.09;100054.68;87591;1286;95140;-72
2021/12/31 07:24:21;;;;;;;7.30;5.80;;;;;;;8.94;93.13;100055.70;87556;1286;81918;-69
2021/12/31 07:26:28;;;;;;;7.20;6.00;;;;;;;8.96;92.99;100055.80;87623;1286;79197;-70
2021/12/31 07:28:37;;;;;;;7.70;6.40;;;;;;;8.99;92.95;100062.20;87601;1286;97334;-63
2021/12/31 07:30:45;;;;;;;7.10;6.00;;;;;;;8.98;92.98;100063.96;87583;1285;88983;-62
2021/12/31 07:32:53;;;;;;;10.00;6.30;;;;;;;8.96;92.90;100061.52;87565;1286;95649;-62
2021/12/31 07:35:03;;;;;;;8.40;6.70;;;;;;;8.96;92.79;100064.80;87542;1285;80742;-63
2021/12/31 07:37:08;;;;;;;9.40;6.10;;;;;;;8.92;92.66;100062.14;87591;1286;83085;-62
2021/12/31 07:39:14;;;;;;;9.40;7.00;;;;;;;8.93;92.67;100063.31;87606;1286;99476;-70
2021/12/31 07:41:23;;;;;;;10.10;6.70;;;;;;;8.95;92.61;100065.61;87623;1286;88015;-72
2021/12/31 07:43:30;;;;;;;8.00;6.20;;;;;;;8.97;92.73;100067.51;87576;1286;96139;-63
2021/12/31 07:45:36;;;;;;;9.10;6.50;;;;;;;9.01;92.76;100066.08;87604;1286;79515;-63
2021/12/31 07:47:42;;;;;;;9.40;6.70;;;;;;;9.03;92.72;100066.73;87613;1286;79659;-62
2021/12/31 07:49:47;;;;;;;8.80;6.50;;;;;;;9.07;92.79;100064.13;87581;1285;100382;-63
2021/12/31 07:51:56;;;;;;;9.30;6.40;;;;;;;9.06;92.65;100061.78;87590;1286;89198;-64
2021/12/31 07:54:02;;;;;;;7.30;6.10;;;;;;;9.03;92.55;100061.98;87561;1286;95743;-63
2021/12/31 07:56:08;;;;;;;7.80;6.10;;;;;;;8.99;92.66;100059.87;87563;1286;81195;-63
2021/12/31 07:58:18;;;;;;;8.40;6.30;;;;;;;8.99;92.57;100054.89;87613;1285;80255;-63
2021/12/31 08:00:23;;;;;;;6.00;5.10;;;;;;;9.01;92.67;100056.21;87566;1286;100231;-62
2021/12/31 08:02:32;;;;;;;8.00;6.10;;;;;;;9.04;92.62;100056.58;87367;1286;88965;-61
2021/12/31 08:04:38;;;;;;;7.30;5.40;;;;;;;9.07;92.70;100053.70;87591;1286;95752;-73
2021/12/31 08:06:47;;;;;;;6.80;5.60;;;;;;;9.07;92.73;100054.91;87593;1286;81030;-72
2021/12/31 08:08:52;;;;;;;6.80;5.10;;;;;;;9.10;92.76;100054.95;87609;1286;82928;-72
2021/12/31 08:10:58;;;;;;;6.70;4.80;;;;;;;9.16;92.78;100055.45;87571;1285;99632;-71
2021/12/31 08:13:05;;;;;;;6.90;5.20;;;;;;;9.20;92.78;100054.55;87684;1286;87880;-72
2021/12/31 08:15:16;;;;;;;8.40;5.60;;;;;;;9.26;92.84;100055.85;87596;1286;95416;-73
2021/12/31 08:17:22;;;;;;;7.20;5.50;;;;;;;9.27;92.81;100054.63;87593;1286;78398;-72
2021/12/31 08:19:28;;;;;;;7.10;5.90;;;;;;;9.27;92.80;100055.88;87612;1286;80891;-72
2021/12/31 08:21:34;;;;;;;5.70;4.90;;;;;;;9.25;92.71;100054.69;87579;1286;98104;-72
2021/12/31 08:23:44;;;;;;;6.30;4.80;;;;;;;9.26;92.77;100057.35;87599;1286;86882;-71
2021/12/31 08:25:51;;;;;;;6.00;4.50;;;;;;;9.27;92.80;100053.00;87395;1285;93896;-72
2021/12/31 08:27:59;;;;;;;6.20;4.40;;;;;;;9.29;92.78;100057.25;87578;1286;82859;-70
2021/12/31 08:30:08;;;;;;;5.30;4.30;;;;;;;9.29;92.80;100056.34;87378;1285;81555;-63
2021/12/31 08:32:14;;;;;;;5.30;4.20;;;;;;;9.34;92.94;100051.69;87604;1286;98282;-63
2021/12/31 08:34:20;;;;;;;5.20;4.70;;;;;;;9.38;92.90;100048.88;87578;1286;88640;-62
2021/12/31 08:36:26;;;;;;;5.30;4.30;;;;;;;9.43;92.83;100047.69;87617;1286;94695;-59
2021/12/31 08:38:35;;;;;;;5.00;3.80;;;;;;;9.47;92.92;100046.48;87628;1286;78694;-71
2021/12/31 08:40:41;;;;;;;6.90;4.90;;;;;;;9.52;92.83;100043.86;87605;1286;81495;-72
2021/12/31 08:42:47;;;;;;;5.30;4.30;;;;;;;9.52;92.85;100042.61;87630;1286;98864;-71
2021/12/31 08:44:53;;;;;;;4.90;4.30;;;;;;;9.53;92.76;100043.27;87605;1286;88106;-72
2021/12/31 08:46:59;;;;;;;5.60;4.30;;;;;;;9.49;92.69;100042.06;87624;1286;94723;-71
2021/12/31 08:49:08;;;;;;;5.00;4.10;;;;;;;9.49;92.72;100043.86;87589;1286;80348;-70
2021/12/31 08:51:18;;;;;;;6.40;4.80;;;;;;;9.48;92.76;100042.76;87592;1286;82199;-68
2021/12/31 08:53:27;;;;;;;6.60;4.80;;;;;;;9.50;92.68;100045.02;87583;1286;99404;-60
2021/12/31 08:55:37;;;;;;;6.20;4.90;;;;;;;9.54;92.83;100042.16;87642;1286;87219;-62
2021/12/31 08:57:43;;;;;;;5.10;4.20;;;;;;;9.58;92.80;100045.98;87566;1286;94888;-61
2021/12/31 08:59:49;;;;;;;6.00;4.90;;;;;;;9.64;92.90;100043.63;87640;1286;80969;-70
2021/12/31 09:01:55;;;;;;;5.00;4.50;;;;;;;9.66;92.93;100044.86;87320;1287;83627;-70
2021/12/31 09:04:04;;;;;;;6.50;4.50;;;;;;;9.69;92.81;100043.15;87621;1286;100114;-70
2021/12/31 09:06:12;;;;;;;5.30;4.40;;;;;;;9.75;92.85;100043.20;87606;1286;88347;-69
2021/12/31 09:08:23;;;;;;;5.70;5.00;;;;;;;9.77;92.74;100041.85;87651;1286;93813;-70
2021/12/31 09:10:30;;;;;;;6.10;4.70;;;;;;;9.75;92.81;100038.30;87656;1285;80936;-70
2021/12/31 09:12:36;;;;;;;6.50;5.00;;;;;;;9.73;92.73;100038.05;87620;1286;81187;-72
2021/12/31 09:14:42;;;;;;;6.40;4.70;;;;;;;9.73;92.69;100041.61;87606;1286;99464;-62
2021/12/31 09:16:50;;;;;;;5.50;4.50;;;;;;;9.73;92.81;100042.65;87634;1286;89292;-61
2021/12/31 09:19:03;;;;;;;7.10;5.20;;;;;;;9.75;92.83;100044.77;87376;1286;95129;-71
2021/12/31 09:21:10;;;;;;;7.20;4.60;;;;;;;9.73;92.86;100040.03;87626;1286;79221;-72
2021/12/31 09:23:19;;;;;;;6.30;4.80;;;;;;;9.76;93.00;100038.35;87626;1286;83660;-61
2021/12/31 09:25:26;;;;;;;6.50;4.80;;;;;;;9.79;92.94;100034.86;87606;1286;100355;-71
2021/12/31 09:27:32;;;;;;;4.90;4.00;;;;;;;9.84;93.05;100032.16;87610;1285;87389;-70
2021/12/31 09:29:42;;;;;;;5.70;3.90;;;;;;;9.89;92.99;100027.98;87592;1286;95571;-60
2021/12/31 09:31:49;;;;;;;5.60;4.20;;;;;;;9.94;93.05;100028.06;87272;1287;81947;-61
2021/12/31 09:33:55;;;;;;;4.60;3.90;;;;;;;9.95;93.04;100028.86;87378;1286;80331;-70
2021/12/31 09:36:02;;;;;;;3.50;3.00;;;;;;;9.99;93.01;100027.45;87623;1285;99372;-68
2021/12/31 09:38:09;;;;;;;5.20;4.10;;;;;;;10.02;93.04;100030.17;87432;1285;86367;-71
2021/12/31 09:40:18;;;;;;;4.30;3.70;;;;;;;10.01;93.10;100030.63;87615;1286;94402;-70
2021/12/31 09:42:28;;;;;;;4.20;3.30;;;;;;;10.03;93.09;100029.81;87592;1286;80165;-71
2021/12/31 09:44:35;;;;;;;3.20;2.70;;;;;;;10.07;93.18;100025.19;87598;1286;81459;-61
2021/12/31 09:46:42;;;;;;;4.70;3.60;;;;;;;10.14;93.17;100027.21;87298;1287;98766;-61
2021/12/31 09:48:49;;;;;;;4.40;3.30;;;;;;;10.17;93.26;100022.35;87330;1287;87913;-60
2021/12/31 09:50:59;;;;;;;4.60;3.30;;;;;;;10.18;93.18;100018.20;87610;1286;95426;-70
2021/12/31 09:53:09;;;;;;;3.80;3.10;;;;;;;10.23;93.18;100018.13;87624;1286;80912;-61